createdAt,value
2022-08-17T00:01:56.630Z,22.63
2022-08-17T00:04:02.064Z,29.33
2022-08-17T00:06:08.740Z,19.80
2022-08-17T00:08:13.003Z,23.13
2022-08-17T00:10:15.069Z,25.20
2022-08-17T00:12:41.715Z,21.55
2022-08-17T00:14:40.248Z,21.98
2022-08-17T00:16:55.453Z,23.90
2022-08-17T00:19:07.449Z,22.95
2022-08-17T00:21:11.879Z,23.63
2022-08-17T00:23:18.137Z,23.80
2022-08-17T00:25:20.341Z,19.40
2022-08-17T00:27:22.653Z,22.90
2022-08-17T00:29:24.990Z,27.10
2022-08-17T00:31:27.453Z,20.90
2022-08-17T00:33:31.816Z,25.92
2022-08-17T00:35:35.072Z,24.80
2022-08-17T00:37:37.085Z,22.42
2022-08-17T00:39:39.274Z,18.40
2022-08-17T00:41:42.447Z,23.23
2022-08-17T00:43:50.850Z,24.55
2022-08-17T00:45:53.712Z,24.92
2022-08-17T00:47:55.780Z,28.02
2022-08-17T00:49:57.736Z,21.33
2022-08-17T00:52:11.683Z,22.50
2022-08-17T00:54:19.124Z,25.83
2022-08-17T00:56:29.073Z,25.58
2022-08-17T00:58:36.276Z,30.88
2022-08-17T01:00:43.156Z,30.15
2022-08-17T01:02:47.159Z,26.38
2022-08-17T01:04:52.931Z,26.40
2022-08-17T01:06:57.090Z,33.38
2022-08-17T01:09:00.087Z,33.97
2022-08-17T01:11:03.047Z,27.88
2022-08-17T01:13:06.005Z,33.58
2022-08-17T01:15:08.749Z,30.58
2022-08-17T01:17:15.194Z,34.88
2022-08-17T01:19:30.106Z,32.97
2022-08-17T01:21:57.679Z,39.65
2022-08-17T01:24:05.654Z,41.10
2022-08-17T01:26:07.726Z,34.25
2022-08-17T01:28:09.988Z,35.95
2022-08-17T01:30:58.091Z,38.45
2022-08-17T01:32:35.466Z,33.42
2022-08-17T01:34:42.337Z,38.35
2022-08-17T01:36:47.890Z,36.10
2022-08-17T01:38:50.196Z,37.55
2022-08-17T01:40:58.118Z,36.80
2022-08-17T01:43:07.449Z,40.80
2022-08-17T01:45:14.902Z,42.38
2022-08-17T01:47:19.847Z,42.17
2022-08-17T01:49:23.159Z,38.25
2022-08-17T01:51:32.837Z,37.28
2022-08-17T01:53:39.953Z,34.53
2022-08-17T01:55:48.248Z,36.20
2022-08-17T01:57:50.811Z,32.08
2022-08-17T01:59:52.727Z,33.53
2022-08-17T02:01:56.584Z,34.60
2022-08-17T02:04:01.165Z,34.42
2022-08-17T02:06:05.391Z,36.00
2022-08-17T02:08:19.850Z,40.03
2022-08-17T02:10:22.332Z,36.60
2022-08-17T02:12:47.940Z,39.78
2022-08-17T02:14:47.143Z,38.78
2022-08-17T02:16:49.177Z,39.70
2022-08-17T02:18:51.125Z,43.83
2022-08-17T02:20:53.943Z,37.90
2022-08-17T02:22:55.989Z,41.05
2022-08-17T02:25:01.885Z,36.28
2022-08-17T02:27:04.889Z,41.58
2022-08-17T02:29:07.509Z,41.72
2022-08-17T02:31:12.748Z,38.78
2022-08-17T02:33:15.093Z,39.22
2022-08-17T02:35:17.043Z,38.70
2022-08-17T02:37:22.041Z,41.97
2022-08-17T02:39:24.183Z,40.33
2022-08-17T02:41:25.985Z,39.97
2022-08-17T02:43:28.890Z,40.20
2022-08-17T02:45:30.972Z,38.50
2022-08-17T02:47:33.246Z,39.92
2022-08-17T02:49:35.269Z,36.15
2022-08-17T02:51:37.099Z,38.95
2022-08-17T02:53:50.787Z,45.10
2022-08-17T02:55:53.058Z,38.97
2022-08-17T02:57:55.781Z,40.90
2022-08-17T02:59:57.680Z,42.80
2022-08-17T03:01:59.628Z,42.47
2022-08-17T03:04:01.742Z,37.67
2022-08-17T03:06:05.125Z,37.08
2022-08-17T03:08:07.470Z,38.75
2022-08-17T03:10:15.100Z,37.90
2022-08-17T03:12:18.107Z,37.05
2022-08-17T03:14:20.166Z,35.58
2022-08-17T03:16:28.267Z,39.13
2022-08-17T03:18:30.459Z,38.97
2022-08-17T03:20:33.737Z,34.85
2022-08-17T03:22:42.345Z,37.38
2022-08-17T03:24:50.230Z,35.20
2022-08-17T03:26:52.760Z,37.95
2022-08-17T03:28:54.668Z,39.83
2022-08-17T03:30:56.789Z,34.35
2022-08-17T03:33:01.142Z,38.58
2022-08-17T03:35:03.098Z,38.47
2022-08-17T03:37:05.074Z,38.55
2022-08-17T03:39:07.164Z,34.80
2022-08-17T03:41:09.147Z,34.90
2022-08-17T03:43:11.201Z,35.28
2022-08-17T03:45:16.490Z,37.28
2022-08-17T03:47:37.066Z,36.58
2022-08-17T03:49:57.676Z,39.55
2022-08-17T03:52:18.335Z,39.97
2022-08-17T03:54:38.688Z,39.20
2022-08-17T03:56:44.728Z,36.10
2022-08-17T03:58:47.551Z,36.00
2022-08-17T04:00:51.155Z,37.53
2022-08-17T04:02:53.456Z,34.88
2022-08-17T04:04:55.918Z,38.03
2022-08-17T04:06:58.112Z,38.08
2022-08-17T04:09:00.226Z,38.17
2022-08-17T04:11:02.341Z,37.90
2022-08-17T04:13:04.694Z,40.05
2022-08-17T04:15:07.286Z,37.30
2022-08-17T04:17:09.163Z,38.45
2022-08-17T04:19:11.519Z,36.67
2022-08-17T04:21:13.468Z,40.78
2022-08-17T04:23:17.971Z,40.75
2022-08-17T04:25:20.064Z,38.60
2022-08-17T04:27:22.049Z,40.83
2022-08-17T04:29:26.319Z,40.83
2022-08-17T04:31:56.413Z,42.08
2022-08-17T04:33:58.394Z,39.45
2022-08-17T04:36:03.161Z,43.58
2022-08-17T04:38:06.447Z,42.10
2022-08-17T04:40:27.586Z,41.67
2022-08-17T04:42:30.778Z,43.20
2022-08-17T04:44:37.375Z,40.72
2022-08-17T04:46:40.288Z,38.33
2022-08-17T04:48:46.264Z,41.75
2022-08-17T04:50:50.606Z,42.70
2022-08-17T04:52:52.572Z,37.95
2022-08-17T04:54:54.529Z,41.15
2022-08-17T04:56:56.592Z,39.80
2022-08-17T04:59:02.771Z,40.03
2022-08-17T05:01:06.084Z,37.78
2022-08-17T05:03:08.233Z,42.47
2022-08-17T05:05:10.147Z,36.65
2022-08-17T05:07:17.616Z,42.55
2022-08-17T05:09:21.949Z,42.33
2022-08-17T05:11:26.458Z,37.88
2022-08-17T05:13:31.807Z,40.13
2022-08-17T05:15:36.160Z,36.95
2022-08-17T05:17:37.991Z,50.47
2022-08-17T05:19:39.861Z,42.13
2022-08-17T05:21:50.309Z,41.65
2022-08-17T05:23:56.242Z,40.35
2022-08-17T05:25:58.649Z,40.17
2022-08-17T05:28:00.511Z,38.42
2022-08-17T05:30:04.306Z,39.15
2022-08-17T05:32:39.692Z,39.72
2022-08-17T05:36:43.861Z,39.33
2022-08-17T05:38:46.087Z,40.15
2022-08-17T05:40:48.460Z,39.58
2022-08-17T05:42:50.982Z,39.08
2022-08-17T05:44:52.916Z,44.30
2022-08-17T05:46:55.005Z,41.05
2022-08-17T05:49:04.439Z,41.28
2022-08-17T05:51:12.158Z,42.88
2022-08-17T05:53:33.059Z,44.25
2022-08-17T05:56:01.723Z,46.00
2022-08-17T05:58:45.618Z,40.28
2022-08-17T06:01:13.144Z,42.20
2022-08-17T06:03:33.342Z,48.72
2022-08-17T06:05:51.481Z,45.22
2022-08-17T06:07:57.631Z,43.92
2022-08-17T06:10:31.698Z,42.65
2022-08-17T06:12:42.098Z,44.95
2022-08-17T06:14:49.484Z,42.38
2022-08-17T06:16:59.321Z,50.05
2022-08-17T06:19:14.726Z,50.77
2022-08-17T06:21:20.028Z,47.75
2022-08-17T06:23:39.326Z,45.97
2022-08-17T06:25:47.798Z,45.90
2022-08-17T06:27:55.713Z,44.63
2022-08-17T06:30:09.430Z,48.17
2022-08-17T06:32:13.225Z,52.28
2022-08-17T06:34:15.702Z,51.35
2022-08-17T06:36:28.153Z,54.05
2022-08-17T06:39:03.246Z,51.40
2022-08-17T06:41:18.010Z,53.55
2022-08-17T06:43:39.704Z,46.17
2022-08-17T06:45:49.546Z,50.08
2022-08-17T06:48:24.477Z,50.10
2022-08-17T06:50:44.013Z,59.08
2022-08-17T06:52:57.639Z,56.15
2022-08-17T06:55:08.066Z,47.10
2022-08-17T06:57:30.627Z,48.45
2022-08-17T06:59:55.124Z,47.53
2022-08-17T07:02:05.650Z,49.78
2022-08-17T07:04:13.076Z,44.60
2022-08-17T07:06:18.135Z,54.70
2022-08-17T07:08:27.682Z,48.65
2022-08-17T07:10:50.982Z,46.15
2022-08-17T07:12:56.022Z,51.53
2022-08-17T07:15:12.949Z,49.65
2022-08-17T07:17:17.383Z,51.40
2022-08-17T07:19:24.433Z,47.13
2022-08-17T07:21:55.114Z,55.58
2022-08-17T07:24:29.537Z,49.33
2022-08-17T07:26:32.098Z,48.83
2022-08-17T07:28:35.579Z,55.47
2022-08-17T07:30:47.375Z,55.65
2022-08-17T07:32:58.472Z,52.20
2022-08-17T07:37:18.923Z,51.90
2022-08-17T07:39:28.182Z,51.08
2022-08-17T07:41:53.178Z,55.95
2022-08-17T07:43:58.470Z,55.05
2022-08-17T07:46:36.939Z,61.97
2022-08-17T07:48:41.362Z,56.92
2022-08-17T07:50:43.035Z,53.90
2022-08-17T07:52:52.608Z,56.40
2022-08-17T07:54:54.640Z,61.00
2022-08-17T07:57:02.175Z,53.65
2022-08-17T07:59:10.307Z,53.42
2022-08-17T08:01:18.477Z,56.10
2022-08-17T08:03:32.029Z,56.50
2022-08-17T08:05:50.171Z,64.43
2022-08-17T08:07:58.403Z,61.72
2022-08-17T08:10:14.030Z,59.58
2022-08-17T08:12:33.362Z,59.65
2022-08-17T08:14:38.639Z,61.40
2022-08-17T08:16:55.258Z,63.42
2022-08-17T08:18:59.907Z,62.38
2022-08-17T08:21:09.608Z,67.53
2022-08-17T08:23:21.070Z,65.25
2022-08-17T08:25:45.422Z,65.38
2022-08-17T08:28:08.858Z,65.28
2022-08-17T08:30:16.231Z,63.78
2022-08-17T08:32:30.287Z,59.45
2022-08-17T08:34:45.020Z,63.00
2022-08-17T08:37:15.748Z,58.63
2022-08-17T08:39:28.543Z,51.08
2022-08-17T08:42:10.029Z,55.65
2022-08-17T08:44:23.873Z,49.13
2022-08-17T08:47:14.437Z,50.78
2022-08-17T08:50:03.222Z,43.70
2022-08-17T08:52:20.181Z,44.05
2022-08-17T08:54:53.849Z,41.67
2022-08-17T08:59:54.143Z,39.87
2022-08-17T09:02:29.522Z,40.80
2022-08-17T09:05:14.393Z,45.30
2022-08-17T09:07:31.688Z,45.72
2022-08-17T09:09:59.499Z,41.05
2022-08-17T09:12:29.249Z,38.95
2022-08-17T09:14:46.588Z,38.38
2022-08-17T09:17:05.891Z,39.67
2022-08-17T09:19:34.101Z,36.25
2022-08-17T09:21:47.961Z,37.45
2022-08-17T09:24:35.867Z,34.88
2022-08-17T09:26:46.446Z,35.33
2022-08-17T09:28:52.732Z,33.78
2022-08-17T09:31:03.127Z,36.15
2022-08-17T09:33:08.618Z,36.53
2022-08-17T09:35:15.925Z,32.50
2022-08-17T09:37:20.438Z,32.40
2022-08-17T09:39:33.455Z,37.10
2022-08-17T09:41:52.883Z,33.00
2022-08-17T09:44:23.133Z,33.17
2022-08-17T09:46:41.013Z,36.50
2022-08-17T09:48:55.294Z,29.90
2022-08-17T09:51:07.137Z,28.05
2022-08-17T09:53:09.474Z,31.73
2022-08-17T09:55:11.277Z,30.02
2022-08-17T09:57:32.562Z,34.55
2022-08-17T10:00:11.339Z,27.98
2022-08-17T10:02:50.565Z,22.65
2022-08-17T10:05:12.095Z,28.10
2022-08-17T10:07:32.568Z,25.38
2022-08-17T10:09:48.756Z,20.35
2022-08-17T10:12:30.132Z,19.00
2022-08-17T10:14:55.062Z,22.58
2022-08-17T10:17:22.353Z,25.98
2022-08-17T10:19:26.816Z,21.52
2022-08-17T10:22:00.881Z,19.02
2022-08-17T10:24:33.487Z,20.33
2022-08-17T10:26:55.419Z,20.05
2022-08-17T10:29:11.613Z,21.40
2022-08-17T10:31:40.798Z,24.10
2022-08-17T10:34:19.112Z,18.00
2022-08-17T10:36:37.927Z,16.73
2022-08-17T10:38:42.305Z,16.38
2022-08-17T10:40:43.912Z,14.82
2022-08-17T10:42:51.879Z,12.60
2022-08-17T10:45:13.978Z,14.80
2022-08-17T10:47:18.206Z,20.83
2022-08-17T10:49:22.596Z,15.25
2022-08-17T10:51:41.697Z,21.08
2022-08-17T10:53:43.683Z,17.92
2022-08-17T10:56:14.349Z,20.98
2022-08-17T10:58:24.532Z,18.30
2022-08-17T11:00:43.939Z,24.13
2022-08-17T11:02:50.225Z,19.33
2022-08-17T11:05:08.832Z,16.05
2022-08-17T11:07:35.474Z,22.58
2022-08-17T11:10:09.973Z,18.77
2022-08-17T11:12:49.244Z,16.17
2022-08-17T11:15:20.111Z,20.02
2022-08-17T11:17:57.699Z,15.85
2022-08-17T11:20:38.157Z,17.08
2022-08-17T11:23:08.134Z,19.05
2022-08-17T11:25:21.673Z,18.73
2022-08-17T11:27:29.542Z,14.48
2022-08-17T11:29:53.528Z,16.13
2022-08-17T11:32:02.721Z,15.10
2022-08-17T11:34:06.400Z,13.98
2022-08-17T11:36:49.481Z,10.98
2022-08-17T11:39:06.165Z,12.48
2022-08-17T11:41:20.238Z,10.98
2022-08-17T11:43:58.698Z,12.45
2022-08-17T11:46:25.923Z,12.63
2022-08-17T11:48:53.173Z,12.60
2022-08-17T11:51:54.215Z,12.90
2022-08-17T11:54:21.658Z,10.20
2022-08-17T11:56:34.071Z,11.77
2022-08-17T11:58:43.185Z,10.60
2022-08-17T12:00:45.902Z,12.60
2022-08-17T12:02:48.826Z,9.40
2022-08-17T12:05:14.774Z,8.45
2022-08-17T12:07:23.212Z,13.68
2022-08-17T12:09:29.932Z,10.15
2022-08-17T12:12:13.845Z,7.97
2022-08-17T12:14:45.084Z,7.22
2022-08-17T12:16:59.874Z,9.05
2022-08-17T12:19:03.734Z,10.73
2022-08-17T12:21:23.503Z,12.52
2022-08-17T12:23:40.588Z,7.00
2022-08-17T12:28:05.273Z,7.90
2022-08-17T12:30:14.493Z,9.77
2022-08-17T12:32:20.218Z,9.23
2022-08-17T12:34:27.937Z,7.68
2022-08-17T12:36:32.078Z,7.15
2022-08-17T12:38:36.242Z,6.90
2022-08-17T12:40:38.141Z,9.25
2022-08-17T12:42:41.499Z,6.97
2022-08-17T12:44:50.082Z,7.50
2022-08-17T12:47:00.982Z,8.18
2022-08-17T12:49:31.586Z,21.80
2022-08-17T12:53:35.989Z,13.07
2022-08-17T12:55:39.295Z,8.02
2022-08-17T12:57:54.368Z,7.82
2022-08-17T13:00:20.013Z,11.27
2022-08-17T13:02:53.779Z,8.18
2022-08-17T13:04:59.211Z,8.35
2022-08-17T13:07:03.162Z,8.75
2022-08-17T13:09:18.594Z,13.65
2022-08-17T13:11:24.871Z,7.95
2022-08-17T13:13:29.849Z,10.18
2022-08-17T13:15:51.276Z,9.57
2022-08-17T13:18:09.016Z,18.38
2022-08-17T13:20:15.834Z,16.90
2022-08-17T13:22:22.456Z,13.30
2022-08-17T13:24:26.427Z,14.75
2022-08-17T13:26:51.442Z,9.93
2022-08-17T13:28:54.521Z,13.00
2022-08-17T13:31:26.372Z,10.63
2022-08-17T13:33:44.628Z,10.40
2022-08-17T13:35:50.421Z,17.35
2022-08-17T13:38:10.508Z,21.98
2022-08-17T13:40:12.183Z,23.60
2022-08-17T13:42:32.815Z,18.60
2022-08-17T13:44:40.475Z,20.00
2022-08-17T13:46:52.488Z,22.88
2022-08-17T13:49:11.660Z,20.95
2022-08-17T13:51:19.865Z,27.13
2022-08-17T13:53:26.698Z,24.27
2022-08-17T13:55:31.312Z,26.25
2022-08-17T13:57:33.450Z,23.13
2022-08-17T13:59:54.513Z,20.13
2022-08-17T14:01:57.455Z,24.42
2022-08-17T14:04:01.923Z,18.73
2022-08-17T14:06:05.279Z,17.73
2022-08-17T14:08:07.350Z,12.10
2022-08-17T14:10:17.966Z,8.10
2022-08-17T14:12:23.091Z,9.80
2022-08-17T14:14:25.592Z,9.48
2022-08-17T14:16:27.295Z,12.02
2022-08-17T14:18:31.183Z,9.55
2022-08-17T14:20:53.239Z,7.68
2022-08-17T14:22:55.925Z,7.50
2022-08-17T14:24:59.910Z,9.95
2022-08-17T14:27:03.847Z,9.32
2022-08-17T14:29:05.624Z,8.15
2022-08-17T14:31:16.877Z,9.73
2022-08-17T14:33:22.599Z,8.45
2022-08-17T14:35:27.902Z,10.18
2022-08-17T14:37:30.972Z,10.00
2022-08-17T14:39:32.941Z,9.52
2022-08-17T14:41:35.517Z,8.88
2022-08-17T14:43:37.328Z,8.85
2022-08-17T14:45:39.023Z,10.68
2022-08-17T14:47:41.845Z,12.85
2022-08-17T14:49:43.906Z,11.40
2022-08-17T14:51:49.814Z,10.48
2022-08-17T14:53:51.538Z,11.70
2022-08-17T14:55:55.842Z,9.65
2022-08-17T14:57:57.578Z,13.73
2022-08-17T15:00:00.167Z,9.68
2022-08-17T15:02:05.014Z,12.05
2022-08-17T15:04:07.100Z,9.90
2022-08-17T15:06:09.842Z,16.05
2022-08-17T15:08:12.680Z,13.68
2022-08-17T15:10:16.043Z,14.10
2022-08-17T15:12:21.977Z,17.38
2022-08-17T15:14:23.731Z,14.05
2022-08-17T15:16:27.052Z,11.23
2022-08-17T15:18:29.847Z,12.55
2022-08-17T15:20:31.620Z,9.75
2022-08-17T15:22:33.344Z,11.38
2022-08-17T15:24:35.289Z,11.23
2022-08-17T15:26:38.070Z,11.63
2022-08-17T15:28:39.921Z,15.63
2022-08-17T15:30:43.825Z,13.82
2022-08-17T15:32:51.174Z,10.85
2022-08-17T15:34:58.746Z,15.13
2022-08-17T15:37:00.506Z,18.05
2022-08-17T15:39:03.697Z,16.70
2022-08-17T15:41:15.150Z,19.90
2022-08-17T15:43:24.806Z,13.20
2022-08-17T15:45:30.819Z,13.98
2022-08-17T15:47:32.678Z,11.85
2022-08-17T15:49:34.640Z,14.27
2022-08-17T15:51:36.761Z,11.75
2022-08-17T15:53:39.365Z,10.95
2022-08-17T15:55:41.220Z,12.00
2022-08-17T15:57:42.917Z,10.13
2022-08-17T15:59:46.349Z,9.48
2022-08-17T16:03:14.978Z,7.93
2022-08-17T16:04:30.153Z,9.82
2022-08-17T16:06:33.031Z,12.75
2022-08-17T16:08:35.462Z,10.73
2022-08-17T16:10:37.267Z,8.43
2022-08-17T16:12:39.002Z,9.15
2022-08-17T16:14:40.770Z,11.05
2022-08-17T16:16:42.484Z,8.52
2022-08-17T16:18:44.258Z,8.77
2022-08-17T16:20:45.958Z,11.60
2022-08-17T16:22:49.845Z,8.45
2022-08-17T16:24:56.953Z,8.55
2022-08-17T16:26:59.567Z,9.07
2022-08-17T16:29:05.260Z,13.23
2022-08-17T16:31:08.242Z,10.32
2022-08-17T16:33:12.284Z,14.77
2022-08-17T16:35:18.248Z,12.13
2022-08-17T16:37:20.061Z,10.65
2022-08-17T16:39:22.379Z,9.38
2022-08-17T16:41:47.538Z,9.98
2022-08-17T16:43:49.826Z,11.45
2022-08-17T16:45:52.341Z,10.48
2022-08-17T16:47:55.198Z,9.63
2022-08-17T16:49:56.959Z,8.10
2022-08-17T16:52:03.410Z,8.13
2022-08-17T16:54:06.343Z,11.30
2022-08-17T16:56:08.035Z,8.65
2022-08-17T16:58:10.231Z,8.02
2022-08-17T17:00:14.479Z,10.75
2022-08-17T17:02:25.331Z,9.45
2022-08-17T17:04:27.705Z,8.75
2022-08-17T17:06:46.310Z,8.68
2022-08-17T17:09:12.204Z,8.93
2022-08-17T17:11:36.477Z,8.48
2022-08-17T17:13:46.887Z,10.45
2022-08-17T17:16:24.019Z,8.88
2022-08-17T17:19:01.708Z,11.30
2022-08-17T17:21:04.829Z,10.43
2022-08-17T17:23:25.166Z,8.95
2022-08-17T17:25:32.988Z,8.52
2022-08-17T17:27:52.758Z,13.07
2022-08-17T17:30:04.795Z,11.32
2022-08-17T17:32:32.986Z,9.18
2022-08-17T17:34:36.485Z,10.55
2022-08-17T17:36:47.614Z,11.43
2022-08-17T17:38:54.053Z,13.05
2022-08-17T17:41:05.587Z,11.57
2022-08-17T17:43:37.209Z,9.40
2022-08-17T17:45:40.637Z,10.23
2022-08-17T17:47:43.239Z,10.13
2022-08-17T17:49:48.820Z,7.53
2022-08-17T17:52:11.149Z,10.18
2022-08-17T17:54:44.367Z,12.05
2022-08-17T17:57:04.363Z,11.23
2022-08-17T17:59:21.087Z,17.30
2022-08-17T18:01:31.988Z,18.65
2022-08-17T18:04:20.771Z,11.63
2022-08-17T18:06:56.560Z,11.18
2022-08-17T18:09:15.484Z,12.60
2022-08-17T18:11:36.309Z,12.45
2022-08-17T18:14:01.996Z,12.60
2022-08-17T18:16:10.610Z,12.82
2022-08-17T18:18:15.222Z,14.35
2022-08-17T18:20:36.468Z,14.48
2022-08-17T18:22:47.250Z,14.43
2022-08-17T18:24:56.559Z,15.20
2022-08-17T18:27:01.971Z,15.77
2022-08-17T18:29:30.302Z,17.25
2022-08-17T18:31:32.358Z,15.63
2022-08-17T18:33:34.966Z,15.02
2022-08-17T18:35:36.781Z,16.50
2022-08-17T18:37:45.008Z,15.10
2022-08-17T18:39:46.894Z,14.30
2022-08-17T18:41:53.165Z,14.18
2022-08-17T18:44:04.814Z,13.80
2022-08-17T18:46:30.072Z,10.70
2022-08-17T18:48:52.803Z,14.07
2022-08-17T18:51:00.353Z,13.18
2022-08-17T18:53:33.537Z,11.77
2022-08-17T18:55:36.116Z,15.73
2022-08-17T18:57:48.745Z,13.30
2022-08-17T18:59:50.743Z,13.85
2022-08-17T19:02:15.304Z,12.70
2022-08-17T19:04:34.519Z,12.15
2022-08-17T19:06:37.977Z,16.92
2022-08-17T19:08:40.325Z,18.05
2022-08-17T19:10:46.967Z,13.77
2022-08-17T19:13:00.744Z,13.70
2022-08-17T19:15:04.413Z,12.30
2022-08-17T19:17:21.084Z,12.93
2022-08-17T19:19:51.016Z,16.17
2022-08-17T19:22:13.673Z,12.10
2022-08-17T19:24:26.540Z,12.63
2022-08-17T19:26:51.124Z,14.43
2022-08-17T19:29:04.007Z,12.05
2022-08-17T19:31:16.789Z,11.98
2022-08-17T19:33:22.192Z,15.63
2022-08-17T19:35:32.398Z,19.58
2022-08-17T19:38:00.759Z,10.85
2022-08-17T19:40:29.257Z,13.45
2022-08-17T19:42:52.870Z,13.85
2022-08-17T19:45:04.073Z,11.73
2022-08-17T19:47:19.555Z,13.63
2022-08-17T19:50:00.931Z,21.60
2022-08-17T19:52:34.277Z,12.55
2022-08-17T19:54:55.727Z,19.83
2022-08-17T19:57:35.055Z,16.45
2022-08-17T20:00:09.682Z,14.30
2022-08-17T20:02:35.538Z,17.77
2022-08-17T20:04:43.396Z,19.98
2022-08-17T20:06:49.526Z,15.55
2022-08-17T20:09:14.336Z,17.00
2022-08-17T20:11:31.715Z,15.60
2022-08-17T20:13:45.007Z,18.98
2022-08-17T20:15:47.932Z,14.80
2022-08-17T20:17:51.053Z,20.13
2022-08-17T20:20:20.259Z,16.88
2022-08-17T20:22:51.910Z,13.15
2022-08-17T20:24:57.764Z,15.82
2022-08-17T20:27:12.337Z,15.73
2022-08-17T20:29:14.409Z,18.70
2022-08-17T20:31:56.262Z,12.43
2022-08-17T20:34:33.752Z,20.88
2022-08-17T20:39:00.362Z,12.27
2022-08-17T20:41:10.314Z,17.17
2022-08-17T20:43:33.475Z,13.65
2022-08-17T20:45:53.128Z,16.23
2022-08-17T20:50:32.499Z,10.98
2022-08-17T20:52:51.732Z,18.75
2022-08-17T20:54:57.604Z,10.82
2022-08-17T20:57:01.128Z,10.32
2022-08-17T20:59:03.679Z,12.93
2022-08-17T21:01:14.977Z,17.38
2022-08-17T21:03:28.333Z,13.48
2022-08-17T21:06:17.245Z,12.07
2022-08-17T21:08:29.703Z,13.48
2022-08-17T21:10:35.876Z,15.82
2022-08-17T21:13:04.604Z,15.73
2022-08-17T21:15:17.210Z,15.75
2022-08-17T21:17:38.463Z,16.48
2022-08-17T21:20:13.801Z,11.65
2022-08-17T21:22:43.380Z,15.55
2022-08-17T21:25:37.255Z,12.80
2022-08-17T21:27:58.752Z,9.30
2022-08-17T21:30:06.717Z,14.68
2022-08-17T21:32:23.761Z,13.43
2022-08-17T21:34:38.894Z,9.40
2022-08-17T21:36:41.983Z,16.98
2022-08-17T21:38:57.381Z,17.13
2022-08-17T21:40:59.596Z,13.45
2022-08-17T21:43:23.628Z,12.43
2022-08-17T21:45:32.244Z,16.92
2022-08-17T21:47:35.017Z,16.73
2022-08-17T21:49:37.813Z,14.45
2022-08-17T21:51:56.511Z,12.02
2022-08-17T21:54:05.206Z,15.63
2022-08-17T21:56:13.032Z,19.92
2022-08-17T21:58:39.980Z,16.70
2022-08-17T22:00:44.515Z,15.82
2022-08-17T22:02:55.428Z,13.35
2022-08-17T22:07:03.672Z,16.98
2022-08-17T22:09:13.020Z,14.18
2022-08-17T22:11:17.032Z,14.52
2022-08-17T22:13:19.838Z,14.30
2022-08-17T22:15:21.786Z,14.00
2022-08-17T22:17:27.304Z,21.90
2022-08-17T22:19:30.457Z,16.13
2022-08-17T22:21:32.186Z,16.27
2022-08-17T22:23:59.454Z,9.32
2022-08-17T22:26:09.569Z,15.00
2022-08-17T22:28:39.773Z,18.80
2022-08-17T22:31:01.697Z,16.23
2022-08-17T22:33:31.446Z,12.43
2022-08-17T22:35:43.266Z,14.32
2022-08-17T22:37:45.540Z,10.80
2022-08-17T22:39:58.114Z,13.95
2022-08-17T22:42:00.934Z,9.45
2022-08-17T22:44:29.672Z,12.32
2022-08-17T22:46:47.731Z,9.50
2022-08-17T22:48:52.773Z,11.65
2022-08-17T22:51:18.301Z,17.50
2022-08-17T22:53:41.979Z,12.30
2022-08-17T22:56:14.531Z,11.82
2022-08-17T22:58:38.396Z,13.30
2022-08-17T23:00:45.693Z,19.08
2022-08-17T23:03:05.699Z,14.07
2022-08-17T23:05:13.356Z,12.10
2022-08-17T23:07:15.440Z,19.15
2022-08-17T23:09:17.322Z,13.73
2022-08-17T23:11:19.096Z,15.45
2022-08-17T23:13:38.148Z,15.30
2022-08-17T23:15:41.131Z,22.77
2022-08-17T23:17:45.259Z,16.80
2022-08-17T23:19:47.243Z,12.40
2022-08-17T23:21:55.722Z,14.65
2022-08-17T23:23:59.344Z,10.75
2022-08-17T23:26:05.394Z,11.38
2022-08-17T23:28:07.290Z,15.10
2022-08-17T23:30:10.739Z,16.05
2022-08-17T23:32:15.896Z,18.95
2022-08-17T23:34:18.665Z,12.23
2022-08-17T23:36:20.404Z,8.15
2022-08-17T23:38:22.652Z,9.43
2022-08-17T23:40:24.767Z,13.07
2022-08-17T23:42:28.734Z,9.40
2022-08-17T23:44:31.139Z,15.52
2022-08-17T23:46:32.915Z,12.18
2022-08-17T23:48:35.816Z,12.55
2022-08-17T23:50:38.775Z,16.05
2022-08-17T23:52:43.371Z,17.08
2022-08-17T23:54:46.864Z,11.52
2022-08-17T23:56:48.799Z,12.77
2022-08-17T23:58:51.439Z,13.77
